This is the latest recevied weather packets stored in our database for station/object KD8LPB. If no packets are shown the sender has not sent any weather packets the latest 10 day(s).
| Time | Temp. | Humidity | Pressure | Rain* | Wind** | Luminosity | Snow |
|---|---|---|---|---|---|---|---|
| 1777733154 | 3.33° C | 83% | 1015.9 hPa | 0 mm | - | - | - |
| 1777731346 | 2.78° C | 86% | 1015.9 hPa | 0 mm | - | - | - |
| 1777723239 | 1.67° C | 90% | 1015.9 hPa | 0 mm | - | - | - |
| 1777713339 | 0.56° C | 91% | 1015.3 hPa | 0 mm | - | - | - |
| 1777712439 | 0° C | 93% | 1015.3 hPa | 0 mm | - | - | - |
| 1777709735 | 0.56° C | 94% | 1015.1 hPa | 0 mm | - | - | - |
| 1777702536 | 0.56° C | 91% | 1015.5 hPa | 0 mm | - | - | - |
| 1777698938 | 1.11° C | 91% | 1015.7 hPa | 0 mm | - | - | - |
| 1777698037 | 1.11° C | 90% | 1015.8 hPa | 0 mm | - | - | - |
| 1777694439 | 0.56° C | 92% | 1016 hPa | 0 mm | - | - | - |
| 1777689035 | 0.56° C | 90% | 1016.4 hPa | 0 mm | - | - | - |
| 1777677342 | 2.78° C | 82% | 1015.8 hPa | 0 mm | - | - | - |
| 1777676441 | 2.78° C | 82% | 1015.7 hPa | 0 mm | - | - | - |
| 1777671036 | 2.78° C | 80% | 1015.4 hPa | 0 mm | - | - | - |
| 1777669241 | 2.78° C | 81% | 1015.4 hPa | 0 mm | - | - | - |
| 1777667436 | 3.33° C | 79% | 1015.6 hPa | 0 mm | - | - | - |
| 1777661138 | 2.78° C | 78% | 1015.5 hPa | 0 mm | - | - | - |
| 1777656636 | 2.78° C | 78% | 1015.4 hPa | 0 mm | - | - | - |
| 1777654835 | 2.78° C | 79% | 1015.3 hPa | 0 mm | - | - | - |
| 1777648542 | 2.22° C | 77% | 1015.3 hPa | 0 mm | - | - | - |
| 1777646737 | 2.22° C | 78% | 1015.2 hPa | 0 mm | - | - | - |
| 1777644039 | 2.22° C | 76% | 1015.2 hPa | 0 mm | - | - | - |
| 1777642243 | 1.67° C | 78% | 1015.2 hPa | 0 mm | - | - | - |
| 1777641345 | 1.67° C | 79% | 1015.1 hPa | 0 mm | - | - | - |
| 1777639539 | 1.67° C | 79% | 1014.8 hPa | 0 mm | - | - | - |
* Rain latest hour (hover to see other rain measurements)
** Current wind speed in m/s (hover to see current wind gust speed)